Time;durP1;ratioP1;P1;durP2;ratioP2;P2;SDS_P1;SDS_P2;PMS_P1;PMS_P2;Temp;Humidity;BMP_temperature;BMP_pressure;BME280_temperature;BME280_humidity;BME280_pressure;Samples;Min_cycle;Max_cycle;Signal;HPM_P1;HPM_P2
2023/04/05 00:00:26;;;;;;;12.93;7.85;;;2.40;99.90;;;;;;7368549;19;20019;-60
2023/04/05 00:02:53;;;;;;;13.27;7.25;;;2.40;99.90;;;;;;7366433;19;20053;-60
2023/04/05 00:05:33;;;;;;;10.52;7.30;;;2.30;99.90;;;;;;7373863;19;20584;-61
2023/04/05 00:08:02;;;;;;;12.05;7.78;;;2.30;99.90;;;;;;7368317;19;20074;-60
2023/04/05 00:10:30;;;;;;;11.85;7.35;;;2.20;99.90;;;;;;7371107;19;20023;-61
2023/04/05 00:12:57;;;;;;;11.68;7.88;;;2.20;99.90;;;;;;7370239;19;20051;-60
2023/04/05 00:15:25;;;;;;;11.63;7.93;;;2.20;99.90;;;;;;7373654;19;20082;-62
2023/04/05 00:17:53;;;;;;;11.52;6.93;;;2.10;99.90;;;;;;7370459;19;20970;-61
2023/04/05 00:20:19;;;;;;;13.70;7.55;;;2.10;99.90;;;;;;7373309;19;20015;-61
2023/04/05 00:23:05;;;;;;;15.13;7.55;;;2.00;99.90;;;;;;7369931;19;20051;-61
2023/04/05 00:25:39;;;;;;;13.45;7.25;;;1.90;99.90;;;;;;7366961;19;20022;-61
2023/04/05 00:28:05;;;;;;;11.50;7.30;;;2.00;99.90;;;;;;7366488;19;20022;-61
2023/04/05 00:30:32;;;;;;;10.77;7.38;;;1.90;99.90;;;;;;7364760;19;20023;-61
2023/04/05 00:33:00;;;;;;;13.65;7.55;;;1.80;99.90;;;;;;7365238;19;20055;-61
2023/04/05 00:35:27;;;;;;;13.25;7.70;;;1.80;99.90;;;;;;7371964;19;20011;-66
2023/04/05 00:37:57;;;;;;;14.02;7.72;;;1.90;99.90;;;;;;7368759;19;20092;-66
2023/04/05 00:40:24;;;;;;;12.07;7.70;;;1.80;99.90;;;;;;7369531;19;20166;-66
2023/04/05 00:42:50;;;;;;;16.08;8.18;;;1.80;99.90;;;;;;7368906;19;20018;-66
2023/04/05 00:45:16;;;;;;;14.95;8.23;;;1.60;99.90;;;;;;7365891;19;20014;-66
2023/04/05 00:47:47;;;;;;;12.10;7.60;;;1.60;99.90;;;;;;7371276;19;20098;-66
2023/04/05 00:50:15;;;;;;;13.85;8.07;;;1.60;99.90;;;;;;7363332;19;20018;-66
2023/04/05 00:52:42;;;;;;;12.82;8.48;;;1.60;99.90;;;;;;7366476;19;20034;-66
2023/04/05 00:55:10;;;;;;;12.27;7.45;;;1.50;99.90;;;;;;7364822;19;20538;-66
2023/04/05 00:57:41;;;;;;;12.02;7.78;;;1.50;99.90;;;;;;7368373;19;20559;-65
2023/04/05 01:00:08;;;;;;;12.68;7.50;;;1.40;99.90;;;;;;7364545;19;20035;-65
2023/04/05 01:02:57;;;;;;;12.93;7.63;;;1.40;99.90;;;;;;7365146;19;20019;-66
2023/04/05 01:06:03;;;;;;;13.57;8.00;;;1.40;99.90;;;;;;7362174;19;20025;-66
2023/04/05 01:08:41;;;;;;;11.02;7.00;;;1.40;99.90;;;;;;7361554;19;20857;-66
2023/04/05 01:11:09;;;;;;;11.50;7.03;;;1.30;99.90;;;;;;7367934;19;20022;-66
2023/04/05 01:13:38;;;;;;;11.98;7.93;;;1.30;99.90;;;;;;7369888;19;20023;-66
2023/04/05 01:16:05;;;;;;;11.02;7.55;;;1.20;99.90;;;;;;7368618;19;20943;-66
2023/04/05 01:18:35;;;;;;;11.90;7.32;;;1.20;99.90;;;;;;7365888;19;20604;-66
2023/04/05 01:21:23;;;;;;;10.32;7.95;;;1.20;99.90;;;;;;7371944;19;20030;-66
2023/04/05 01:24:01;;;;;;;13.45;7.90;;;1.10;99.90;;;;;;7377990;19;20031;-66
2023/04/05 01:26:56;;;;;;;13.05;8.35;;;1.10;99.90;;;;;;7374142;19;20014;-61
2023/04/05 01:29:57;;;;;;;14.20;7.93;;;1.00;99.90;;;;;;7369089;19;20022;-61
2023/04/05 01:32:59;;;;;;;13.75;8.02;;;1.00;99.90;;;;;;7374449;19;20072;-60
2023/04/05 01:36:03;;;;;;;12.00;7.72;;;1.00;99.90;;;;;;7368327;19;20039;-66
2023/04/05 01:38:39;;;;;;;13.10;7.70;;;1.00;99.90;;;;;;7369251;19;20049;-66
2023/04/05 01:41:08;;;;;;;11.30;7.50;;;0.90;99.90;;;;;;7370786;19;20023;-66
2023/04/05 01:43:35;;;;;;;13.73;8.55;;;0.90;99.90;;;;;;7376974;19;20078;-61
2023/04/05 01:46:01;;;;;;;13.75;7.82;;;0.90;99.90;;;;;;7375470;19;20038;-62
2023/04/05 01:48:31;;;;;;;12.82;7.65;;;0.90;99.90;;;;;;7375191;19;20140;-60
2023/04/05 01:51:04;;;;;;;12.20;8.32;;;0.80;99.90;;;;;;7377836;19;20011;-60
2023/04/05 01:53:34;;;;;;;11.60;8.35;;;0.70;99.90;;;;;;7377911;19;20026;-65
2023/04/05 01:56:02;;;;;;;10.60;8.05;;;0.70;99.90;;;;;;7373791;19;20021;-65
2023/04/05 01:58:30;;;;;;;13.43;8.65;;;0.60;99.90;;;;;;7370605;19;20097;-60
2023/04/05 02:00:57;;;;;;;10.90;7.72;;;0.60;99.90;;;;;;7369741;19;20763;-60
2023/04/05 02:03:23;;;;;;;12.68;8.48;;;0.60;99.90;;;;;;7374987;19;20014;-66
2023/04/05 02:05:50;;;;;;;13.40;8.07;;;0.60;99.90;;;;;;7373949;19;20394;-61
2023/04/05 02:08:17;;;;;;;11.55;8.45;;;0.60;99.90;;;;;;7367569;19;20015;-66
2023/04/05 02:10:44;;;;;;;16.00;7.75;;;0.60;99.90;;;;;;7364581;19;20030;-65
2023/04/05 02:13:12;;;;;;;13.25;8.95;;;0.60;99.90;;;;;;7371685;19;20014;-65
2023/04/05 02:15:50;;;;;;;13.50;8.32;;;0.60;99.90;;;;;;7377071;19;20018;-65
2023/04/05 02:18:21;;;;;;;12.57;8.60;;;0.60;99.90;;;;;;7370646;19;20500;-60
2023/04/05 02:20:50;;;;;;;14.55;8.25;;;0.40;99.90;;;;;;7377576;19;20023;-65
2023/04/05 02:23:22;;;;;;;18.23;8.30;;;0.40;99.90;;;;;;7370384;19;20018;-65
2023/04/05 02:25:48;;;;;;;12.38;8.50;;;0.40;99.90;;;;;;7368495;19;20025;-61
2023/04/05 02:28:15;;;;;;;15.25;9.07;;;0.50;99.90;;;;;;7366700;19;20661;-61
2023/04/05 02:30:41;;;;;;;11.95;7.95;;;0.40;99.90;;;;;;7369718;19;20089;-60
2023/04/05 02:33:10;;;;;;;13.30;9.27;;;0.40;99.90;;;;;;7372796;19;20676;-60
2023/04/05 02:35:36;;;;;;;10.65;7.90;;;0.40;99.90;;;;;;7367931;19;20018;-65
2023/04/05 02:38:03;;;;;;;15.60;9.68;;;0.40;99.90;;;;;;7370100;19;20022;-65
2023/04/05 02:40:30;;;;;;;12.95;8.52;;;0.40;99.90;;;;;;7361494;19;20809;-66
2023/04/05 02:42:58;;;;;;;13.00;8.88;;;0.40;99.90;;;;;;7368982;19;20481;-66
2023/04/05 02:45:26;;;;;;;15.95;9.55;;;0.30;99.90;;;;;;7373623;19;20023;-66
2023/04/05 02:47:55;;;;;;;14.05;8.73;;;0.30;99.90;;;;;;7370932;19;20082;-65
2023/04/05 02:50:23;;;;;;;13.20;8.45;;;0.30;99.90;;;;;;7371749;19;20014;-66
2023/04/05 02:52:49;;;;;;;14.30;9.52;;;0.30;99.90;;;;;;7373805;19;20454;-61
2023/04/05 02:55:17;;;;;;;12.93;8.63;;;0.20;99.90;;;;;;7371745;19;20040;-61
2023/04/05 02:57:44;;;;;;;14.25;9.30;;;0.20;99.90;;;;;;7372086;19;20146;-60
2023/04/05 03:00:36;;;;;;;17.15;9.43;;;0.20;99.90;;;;;;7371282;19;20022;-66
2023/04/05 03:03:04;;;;;;;14.05;9.05;;;0.20;99.90;;;;;;7371105;19;20119;-65
2023/04/05 03:05:32;;;;;;;13.10;8.75;;;0.10;99.90;;;;;;7372327;19;20015;-66
2023/04/05 03:08:01;;;;;;;14.63;9.05;;;0.10;99.90;;;;;;7371681;19;20029;-65
2023/04/05 03:10:33;;;;;;;14.50;8.98;;;0.10;99.90;;;;;;7359165;19;20022;-65
2023/04/05 03:13:05;;;;;;;12.80;8.93;;;0.00;99.90;;;;;;7359099;19;20022;-65
2023/04/05 03:15:32;;;;;;;17.38;9.52;;;0.00;99.90;;;;;;7371376;19;20615;-65
2023/04/05 03:18:01;;;;;;;14.13;8.90;;;-0.10;99.90;;;;;;7371040;19;20084;-65
2023/04/05 03:20:28;;;;;;;15.23;8.75;;;-0.10;99.90;;;;;;7373240;19;20022;-65
2023/04/05 03:22:59;;;;;;;13.18;8.75;;;-0.10;99.90;;;;;;7369253;19;20074;-65
2023/04/05 03:25:29;;;;;;;13.70;8.98;;;-0.10;99.90;;;;;;7371155;19;20834;-65
2023/04/05 03:27:56;;;;;;;18.20;10.00;;;-0.10;99.90;;;;;;7368639;19;20090;-66
2023/04/05 03:30:27;;;;;;;15.05;9.00;;;-0.10;99.90;;;;;;7370350;19;20063;-66
2023/04/05 03:33:00;;;;;;;17.80;9.40;;;-0.10;99.90;;;;;;7367636;19;20605;-65
2023/04/05 03:35:47;;;;;;;14.52;9.27;;;-0.20;99.90;;;;;;7371400;19;20561;-66
2023/04/05 03:38:15;;;;;;;14.15;9.10;;;-0.20;99.90;;;;;;7372668;19;20023;-65
2023/04/05 03:41:01;;;;;;;17.83;9.75;;;-0.20;99.90;;;;;;7353705;19;20027;-66
2023/04/05 03:43:29;;;;;;;14.40;8.95;;;-0.20;99.90;;;;;;7353573;19;20022;-66
2023/04/05 03:45:56;;;;;;;14.80;9.43;;;-0.20;99.90;;;;;;7356444;19;20563;-65
2023/04/05 03:48:23;;;;;;;16.90;9.10;;;-0.20;99.90;;;;;;7356305;19;20018;-65
2023/04/05 03:50:51;;;;;;;13.95;9.05;;;-0.20;99.90;;;;;;7364517;19;20053;-65
2023/04/05 03:53:20;;;;;;;17.65;8.45;;;-0.20;99.90;;;;;;7367532;19;20105;-66
2023/04/05 03:55:53;;;;;;;14.25;8.57;;;-0.20;99.90;;;;;;7367649;19;20030;-66
2023/04/05 03:58:26;;;;;;;13.38;8.30;;;-0.30;99.90;;;;;;7370663;19;20430;-65
2023/04/05 04:00:55;;;;;;;15.20;9.65;;;-0.30;99.90;;;;;;7368798;19;20141;-65
2023/04/05 04:03:24;;;;;;;14.05;9.98;;;-0.50;99.90;;;;;;7369568;19;21453;-65
2023/04/05 04:05:51;;;;;;;12.52;9.10;;;-0.40;99.90;;;;;;7368397;19;20018;-65
2023/04/05 04:08:20;;;;;;;14.43;8.77;;;-0.40;99.90;;;;;;7372233;19;20014;-59
2023/04/05 04:10:50;;;;;;;13.77;9.25;;;-0.40;99.90;;;;;;7367383;19;20014;-65
2023/04/05 04:13:29;;;;;;;12.32;8.73;;;-0.40;99.90;;;;;;7372811;19;20469;-66
2023/04/05 04:16:22;;;;;;;13.80;9.68;;;-0.40;99.90;;;;;;7365264;19;20014;-65
2023/04/05 04:19:00;;;;;;;16.15;9.10;;;-0.40;99.90;;;;;;7355300;19;20010;-65
2023/04/05 04:21:54;;;;;;;11.95;8.05;;;-0.40;99.90;;;;;;7356691;19;21696;-65
2023/04/05 04:24:39;;;;;;;13.88;8.60;;;-0.50;99.90;;;;;;7362936;19;20022;-61
2023/04/05 04:27:29;;;;;;;16.92;10.15;;;-0.50;99.90;;;;;;7364311;19;20077;-60
2023/04/05 04:30:14;;;;;;;13.82;8.98;;;-0.50;99.90;;;;;;7361068;19;20021;-59
2023/04/05 04:33:04;;;;;;;14.18;9.80;;;-0.50;99.90;;;;;;7364571;19;20027;-60
2023/04/05 04:35:39;;;;;;;15.88;9.52;;;-0.60;99.90;;;;;;7367251;19;20018;-60
2023/04/05 04:38:19;;;;;;;14.05;9.07;;;-0.60;99.90;;;;;;7364075;19;20018;-60
2023/04/05 04:41:10;;;;;;;13.57;9.73;;;-0.60;99.90;;;;;;7361325;19;20077;-65
2023/04/05 04:43:57;;;;;;;19.05;10.95;;;-0.60;99.90;;;;;;7367464;19;20023;-66
2023/04/05 04:46:53;;;;;;;18.70;11.00;;;-0.60;99.90;;;;;;7363879;19;20018;-65
2023/04/05 04:49:58;;;;;;;16.48;10.15;;;-0.60;99.90;;;;;;7358195;19;20014;-66
2023/04/05 04:52:27;;;;;;;17.33;11.45;;;-0.60;99.90;;;;;;7361728;19;20018;-65
2023/04/05 04:54:53;;;;;;;17.85;11.05;;;-0.60;99.90;;;;;;7358330;19;20022;-65
2023/04/05 04:57:20;;;;;;;20.33;11.50;;;-0.60;99.90;;;;;;7361523;19;20038;-64
2023/04/05 04:59:46;;;;;;;18.10;11.00;;;-0.60;99.90;;;;;;7365379;19;20080;-65
2023/04/05 05:02:13;;;;;;;17.35;11.98;;;-0.60;99.90;;;;;;7370229;19;20015;-65
2023/04/05 05:04:40;;;;;;;19.92;12.48;;;-0.50;99.90;;;;;;7372980;19;20018;-66
2023/04/05 05:07:06;;;;;;;17.58;10.07;;;-0.50;99.90;;;;;;7372381;19;20026;-65
2023/04/05 05:09:33;;;;;;;17.98;12.02;;;-0.60;99.90;;;;;;7370461;19;20018;-66
2023/04/05 05:12:00;;;;;;;18.45;11.55;;;-0.50;99.90;;;;;;7371611;19;20025;-66
2023/04/05 05:14:27;;;;;;;20.35;12.00;;;-0.50;99.90;;;;;;7369368;19;20019;-65
2023/04/05 05:16:53;;;;;;;19.45;12.80;;;-0.50;99.90;;;;;;7371589;19;20043;-65
2023/04/05 05:19:20;;;;;;;20.92;13.07;;;-0.50;99.90;;;;;;7369122;19;20022;-65
2023/04/05 05:21:52;;;;;;;18.30;11.88;;;-0.50;99.90;;;;;;7372666;19;20011;-60
2023/04/05 05:24:18;;;;;;;28.45;17.08;;;-0.50;99.90;;;;;;7370688;19;20537;-60
2023/04/05 05:26:45;;;;;;;23.67;15.90;;;-0.50;99.90;;;;;;7365832;19;20018;-61
2023/04/05 05:29:29;;;;;;;24.13;16.40;;;-0.50;99.90;;;;;;7360823;19;20378;-61
2023/04/05 05:31:56;;;;;;;25.63;16.52;;;-0.50;99.90;;;;;;7361178;19;20025;-65
2023/04/05 05:34:23;;;;;;;28.48;18.77;;;-0.50;99.90;;;;;;7356826;19;22250;-61
2023/04/05 05:36:54;;;;;;;27.92;18.48;;;-0.50;99.90;;;;;;7362025;19;20026;-61
2023/04/05 05:39:22;;;;;;;25.33;18.38;;;-0.40;99.90;;;;;;7365791;19;20023;-60
2023/04/05 05:41:49;;;;;;;24.35;16.60;;;-0.40;99.90;;;;;;7372815;19;20094;-60
2023/04/05 05:44:15;;;;;;;24.65;16.13;;;-0.30;99.90;;;;;;7373567;19;20022;-60
2023/04/05 05:46:42;;;;;;;21.17;14.40;;;-0.30;99.90;;;;;;7373858;19;20008;-64
2023/04/05 05:49:13;;;;;;;22.88;13.00;;;-0.20;99.90;;;;;;7374432;19;20022;-66
2023/04/05 05:51:40;;;;;;;18.83;14.15;;;-0.10;99.90;;;;;;7371926;19;20057;-60
2023/04/05 05:54:07;;;;;;;19.63;13.50;;;0.00;99.90;;;;;;7373881;19;20808;-60
2023/04/05 05:56:33;;;;;;;17.83;11.82;;;0.10;99.90;;;;;;7370719;19;20022;-61
2023/04/05 05:59:00;;;;;;;16.25;11.68;;;0.20;99.90;;;;;;7371297;19;20820;-60
2023/04/05 06:01:26;;;;;;;15.73;12.82;;;0.40;99.90;;;;;;7369621;19;20230;-61
2023/04/05 06:03:54;;;;;;;20.05;12.60;;;0.40;99.90;;;;;;7376339;19;20022;-60
2023/04/05 06:06:25;;;;;;;17.37;11.83;;;0.60;99.90;;;;;;7369783;19;20019;-61
2023/04/05 06:08:52;;;;;;;15.65;12.18;;;0.70;99.90;;;;;;7370950;19;20018;-62
2023/04/05 06:11:20;;;;;;;13.57;11.38;;;0.80;99.90;;;;;;7370971;19;20022;-61
2023/04/05 06:13:46;;;;;;;15.80;12.45;;;1.00;99.90;;;;;;7376748;19;20019;-62
2023/04/05 06:16:12;;;;;;;18.73;11.23;;;1.00;99.90;;;;;;7369094;19;20011;-66
2023/04/05 06:18:39;;;;;;;15.13;11.25;;;1.20;99.90;;;;;;7370236;19;20018;-66
2023/04/05 06:21:05;;;;;;;19.42;12.43;;;1.30;99.90;;;;;;7364656;19;20029;-66
2023/04/05 06:23:31;;;;;;;16.80;12.15;;;1.30;99.90;;;;;;7369983;19;20014;-62
2023/04/05 06:25:57;;;;;;;17.77;11.55;;;1.50;99.90;;;;;;7366275;19;21097;-66
2023/04/05 06:28:24;;;;;;;18.15;12.10;;;1.60;99.90;;;;;;7371189;19;20052;-62
2023/04/05 06:30:50;;;;;;;14.45;10.80;;;1.70;99.90;;;;;;7368191;19;20449;-59
2023/04/05 06:33:16;;;;;;;15.38;11.68;;;1.80;99.90;;;;;;7369338;19;20025;-61
2023/04/05 06:35:42;;;;;;;15.20;11.50;;;1.90;99.90;;;;;;7372489;19;20022;-60
2023/04/05 06:38:09;;;;;;;15.55;11.13;;;2.10;99.90;;;;;;7372362;19;20041;-64
2023/04/05 06:40:35;;;;;;;16.52;12.13;;;2.10;99.90;;;;;;7374380;19;20021;-65
2023/04/05 06:43:02;;;;;;;16.10;11.45;;;2.30;99.90;;;;;;7368111;19;20021;-63
2023/04/05 06:45:31;;;;;;;15.30;11.05;;;2.50;99.90;;;;;;7371269;19;20132;-61
2023/04/05 06:48:03;;;;;;;16.27;12.00;;;2.60;99.90;;;;;;7375024;19;20384;-64
2023/04/05 06:50:30;;;;;;;13.45;11.20;;;2.80;99.90;;;;;;7375563;19;20039;-65
2023/04/05 06:52:56;;;;;;;14.75;10.77;;;3.00;99.90;;;;;;7368532;19;20406;-61
2023/04/05 06:55:23;;;;;;;18.90;11.70;;;3.10;99.90;;;;;;7371518;19;20097;-65
2023/04/05 06:57:49;;;;;;;16.38;11.45;;;3.30;99.90;;;;;;7375535;19;20014;-65
2023/04/05 07:00:17;;;;;;;15.63;12.68;;;3.60;99.90;;;;;;7375249;19;20477;-61
2023/04/05 07:02:43;;;;;;;15.80;11.45;;;3.90;99.90;;;;;;7373492;19;20049;-64
2023/04/05 07:05:10;;;;;;;15.45;10.27;;;4.10;99.90;;;;;;7368727;19;20017;-64
2023/04/05 07:07:42;;;;;;;14.93;10.95;;;4.40;99.90;;;;;;7370539;19;20375;-65
2023/04/05 07:10:08;;;;;;;15.63;11.07;;;4.70;99.90;;;;;;7368089;19;20482;-63
2023/04/05 07:12:36;;;;;;;13.35;10.82;;;4.90;99.90;;;;;;7368871;19;20097;-64
2023/04/05 07:15:03;;;;;;;13.15;10.13;;;5.20;99.90;;;;;;7363002;19;20505;-61
2023/04/05 07:17:32;;;;;;;11.15;9.48;;;5.50;99.90;;;;;;7365529;19;20478;-64
2023/04/05 07:19:59;;;;;;;13.70;10.02;;;5.90;99.90;;;;;;7363578;19;20021;-64
2023/04/05 07:22:25;;;;;;;12.52;10.30;;;6.30;99.90;;;;;;7366847;19;20043;-61
2023/04/05 07:24:54;;;;;;;13.55;8.98;;;6.70;99.90;;;;;;7366269;19;20022;-63
2023/04/05 07:27:24;;;;;;;11.80;9.05;;;7.10;99.90;;;;;;7371753;19;20023;-64
2023/04/05 07:29:53;;;;;;;11.73;9.57;;;7.40;99.90;;;;;;7370614;19;20802;-63
2023/04/05 07:32:19;;;;;;;10.63;8.32;;;7.70;99.90;;;;;;7366706;19;20023;-61
2023/04/05 07:34:46;;;;;;;10.80;9.65;;;7.70;99.90;;;;;;7368551;19;20915;-62
2023/04/05 07:37:13;;;;;;;11.05;8.75;;;7.70;99.90;;;;;;7370400;19;20032;-61
2023/04/05 07:39:39;;;;;;;11.60;9.75;;;8.30;99.90;;;;;;7368169;19;20101;-61
2023/04/05 07:42:06;;;;;;;11.88;8.90;;;8.50;99.90;;;;;;7371934;19;20019;-62
2023/04/05 07:44:35;;;;;;;10.98;8.50;;;8.50;99.90;;;;;;7370695;19;20018;-64
2023/04/05 07:47:02;;;;;;;11.82;8.90;;;8.80;99.90;;;;;;7371081;19;20073;-64
2023/04/05 07:49:29;;;;;;;10.20;8.30;;;9.50;99.90;;;;;;7371925;19;20400;-63
2023/04/05 07:51:56;;;;;;;11.25;8.80;;;9.80;99.90;;;;;;7371707;19;20105;-64
2023/04/05 07:54:25;;;;;;;12.70;8.32;;;10.20;99.90;;;;;;7372935;19;20017;-63
2023/04/05 07:56:54;;;;;;;10.15;7.88;;;10.50;99.90;;;;;;7373881;19;20107;-63
2023/04/05 07:59:20;;;;;;;11.63;7.90;;;10.90;99.90;;;;;;7369808;19;20022;-63
2023/04/05 08:01:47;;;;;;;9.05;7.88;;;11.10;98.00;;;;;;7370545;19;20023;-62
2023/04/05 08:04:13;;;;;;;13.32;8.68;;;11.00;95.60;;;;;;7372682;19;20019;-63
2023/04/05 08:06:39;;;;;;;9.05;8.00;;;11.10;87.10;;;;;;7372267;19;20026;-64
2023/04/05 08:09:07;;;;;;;11.98;8.02;;;10.90;87.90;;;;;;7372448;19;20026;-64
2023/04/05 08:11:34;;;;;;;11.00;8.00;;;11.10;84.20;;;;;;7366636;19;20083;-62
2023/04/05 08:14:01;;;;;;;10.75;7.57;;;11.50;72.50;;;;;;7367091;19;20018;-62
2023/04/05 08:16:27;;;;;;;12.65;8.27;;;11.60;70.70;;;;;;7368711;19;20335;-64
2023/04/05 08:18:53;;;;;;;11.63;8.00;;;11.70;69.20;;;;;;7364676;19;20123;-63
2023/04/05 08:21:20;;;;;;;10.02;7.90;;;11.80;68.60;;;;;;7366397;19;20018;-61
2023/04/05 08:23:46;;;;;;;10.32;7.50;;;12.10;67.30;;;;;;7372080;19;20014;-64
2023/04/05 08:26:12;;;;;;;9.80;7.18;;;12.60;66.90;;;;;;7362672;19;20022;-64
2023/04/05 08:28:38;;;;;;;8.85;6.50;;;12.50;63.40;;;;;;7368156;19;20389;-64
2023/04/05 08:31:05;;;;;;;9.60;7.18;;;12.60;62.40;;;;;;7368873;19;20026;-60
2023/04/05 08:33:31;;;;;;;9.38;7.30;;;12.40;59.60;;;;;;7370080;19;20014;-61
2023/04/05 08:36:02;;;;;;;8.77;6.65;;;12.80;60.70;;;;;;7372473;19;20026;-61
2023/04/05 08:38:28;;;;;;;10.25;7.40;;;13.30;59.50;;;;;;7374221;19;20015;-60
2023/04/05 08:40:55;;;;;;;7.97;6.25;;;13.20;59.40;;;;;;7374164;19;20800;-61
2023/04/05 08:43:24;;;;;;;9.38;5.78;;;13.50;57.80;;;;;;7370183;19;20040;-62
2023/04/05 08:45:57;;;;;;;8.60;5.40;;;13.80;56.10;;;;;;7370551;19;20019;-64
2023/04/05 08:48:27;;;;;;;7.43;5.78;;;13.70;54.40;;;;;;7374063;19;20474;-63
2023/04/05 08:50:54;;;;;;;9.65;5.05;;;13.60;54.70;;;;;;7370533;19;20010;-63
2023/04/05 08:53:22;;;;;;;7.45;5.05;;;14.20;54.00;;;;;;7367352;19;20022;-63
2023/04/05 08:55:50;;;;;;;7.80;5.53;;;14.10;53.30;;;;;;7370963;19;20041;-61
2023/04/05 08:58:21;;;;;;;6.88;5.28;;;14.30;52.60;;;;;;7371496;19;20813;-61
2023/04/05 09:00:48;;;;;;;8.07;5.50;;;14.20;51.90;;;;;;7369501;19;20533;-61
2023/04/05 09:03:17;;;;;;;6.30;5.07;;;14.20;51.90;;;;;;7367906;19;20581;-61
2023/04/05 09:05:50;;;;;;;6.35;4.70;;;14.30;51.50;;;;;;7370619;19;20018;-61
2023/04/05 09:08:16;;;;;;;6.63;5.38;;;14.50;47.70;;;;;;7369765;19;20022;-61
2023/04/05 09:10:43;;;;;;;7.32;5.88;;;14.80;49.50;;;;;;7369272;19;20053;-61
2023/04/05 09:13:09;;;;;;;7.57;5.13;;;15.10;49.90;;;;;;7366650;19;20652;-61
2023/04/05 09:15:36;;;;;;;7.43;4.63;;;15.30;50.00;;;;;;7368420;19;20019;-60
2023/04/05 09:18:03;;;;;;;5.03;3.35;;;15.00;48.70;;;;;;7366961;19;20026;-63
2023/04/05 09:20:29;;;;;;;6.53;4.10;;;15.00;45.80;;;;;;7368364;19;20019;-64
2023/04/05 09:22:56;;;;;;;6.88;4.65;;;15.40;45.80;;;;;;7370971;19;20030;-64
2023/04/05 09:25:41;;;;;;;7.78;3.80;;;15.70;46.30;;;;;;7367942;19;20026;-63
2023/04/05 09:28:08;;;;;;;5.28;3.63;;;15.50;43.30;;;;;;7369447;19;20030;-64
2023/04/05 09:30:36;;;;;;;4.60;3.30;;;15.70;44.60;;;;;;7367691;19;20102;-64
2023/04/05 09:33:07;;;;;;;6.75;3.90;;;15.60;44.10;;;;;;7364638;19;20035;-64
2023/04/05 09:35:36;;;;;;;5.45;3.85;;;16.10;44.20;;;;;;7371072;19;20026;-64
2023/04/05 09:38:06;;;;;;;8.25;4.68;;;16.00;43.00;;;;;;7365963;19;20048;-64
2023/04/05 09:40:48;;;;;;;6.47;4.30;;;15.90;43.90;;;;;;7370966;19;20425;-63
2023/04/05 09:43:38;;;;;;;8.18;4.07;;;15.20;43.80;;;;;;7373462;19;20019;-64
2023/04/05 09:46:04;;;;;;;5.28;3.92;;;15.70;44.20;;;;;;7370173;19;20022;-63
2023/04/05 09:48:47;;;;;;;7.20;4.30;;;15.70;44.40;;;;;;7373178;19;20010;-63
2023/04/05 09:51:15;;;;;;;9.65;4.10;;;16.20;44.60;;;;;;7371474;19;20024;-64
2023/04/05 09:54:03;;;;;;;5.88;4.05;;;16.10;44.50;;;;;;7373219;19;20022;-63
2023/04/05 09:56:39;;;;;;;7.28;4.28;;;16.60;42.60;;;;;;7370146;19;20038;-64
2023/04/05 09:59:11;;;;;;;6.47;3.90;;;16.40;42.20;;;;;;7368322;19;20025;-64
2023/04/05 10:01:42;;;;;;;6.05;3.70;;;16.50;41.70;;;;;;7372579;19;20018;-63
2023/04/05 10:04:08;;;;;;;5.72;3.83;;;16.70;42.80;;;;;;7370831;19;20111;-64
2023/04/05 10:06:39;;;;;;;6.85;4.18;;;16.60;42.00;;;;;;7370689;19;20671;-64
2023/04/05 10:09:07;;;;;;;6.00;5.18;;;17.50;42.10;;;;;;7374659;19;20054;-64
2023/04/05 10:11:35;;;;;;;6.85;3.80;;;17.50;41.00;;;;;;7374450;19;20162;-64
2023/04/05 10:14:06;;;;;;;6.68;3.38;;;17.80;39.70;;;;;;7371746;19;20018;-61
2023/04/05 10:16:40;;;;;;;5.00;3.92;;;17.50;40.10;;;;;;7371870;19;20371;-61
2023/04/05 10:19:15;;;;;;;7.22;4.07;;;17.40;39.70;;;;;;7368006;19;20838;-61
2023/04/05 10:21:44;;;;;;;5.88;4.78;;;17.20;39.80;;;;;;7373106;19;20078;-61
2023/04/05 10:24:39;;;;;;;6.65;4.88;;;17.40;39.90;;;;;;7369120;19;20030;-61
2023/04/05 10:27:19;;;;;;;6.68;5.00;;;17.10;38.80;;;;;;7373459;19;20023;-61
2023/04/05 10:30:07;;;;;;;8.68;5.82;;;17.20;38.30;;;;;;7368386;19;20018;-60
2023/04/05 10:32:59;;;;;;;5.15;4.15;;;17.20;38.50;;;;;;7370651;19;20014;-64
2023/04/05 10:35:33;;;;;;;7.38;4.93;;;17.70;39.10;;;;;;7374153;19;20022;-61
2023/04/05 10:38:10;;;;;;;6.28;4.22;;;17.70;38.60;;;;;;7375225;19;20018;-60
2023/04/05 10:40:36;;;;;;;6.88;4.72;;;17.40;40.20;;;;;;7374895;19;20397;-60
2023/04/05 10:43:06;;;;;;;5.80;4.93;;;16.40;40.50;;;;;;7370020;19;20086;-61
2023/04/05 10:45:32;;;;;;;7.05;4.90;;;16.60;39.90;;;;;;7371129;19;20783;-63
2023/04/05 10:48:14;;;;;;;6.18;5.00;;;16.80;39.30;;;;;;7373985;19;20014;-63
2023/04/05 10:50:41;;;;;;;7.22;5.30;;;17.00;38.40;;;;;;7371516;19;20090;-63
2023/04/05 10:53:09;;;;;;;8.25;4.57;;;17.00;39.20;;;;;;7372740;19;20029;-64
2023/04/05 10:55:35;;;;;;;7.07;4.97;;;17.60;39.00;;;;;;7371852;19;20035;-63
2023/04/05 10:58:02;;;;;;;7.07;5.00;;;18.20;38.60;;;;;;7368516;19;20013;-63
2023/04/05 11:00:30;;;;;;;7.55;5.07;;;18.60;38.50;;;;;;7368666;19;20581;-63
2023/04/05 11:02:56;;;;;;;7.15;4.00;;;18.90;38.40;;;;;;7368737;19;20018;-63
2023/04/05 11:05:31;;;;;;;9.50;4.47;;;18.70;38.00;;;;;;7369112;19;20026;-64
2023/04/05 11:08:06;;;;;;;6.88;4.57;;;18.60;37.50;;;;;;7372036;19;20982;-63
2023/04/05 11:10:35;;;;;;;7.80;4.68;;;18.80;37.40;;;;;;7371334;19;20019;-63
2023/04/05 11:13:02;;;;;;;10.07;4.88;;;18.30;37.10;;;;;;7368440;19;20038;-61
2023/04/05 11:15:33;;;;;;;7.25;4.47;;;18.90;37.20;;;;;;7370111;19;20026;-61
2023/04/05 11:18:20;;;;;;;7.78;4.82;;;18.50;38.00;;;;;;7370328;19;20101;-61
2023/04/05 11:20:51;;;;;;;7.60;4.70;;;18.60;37.70;;;;;;7374832;19;20773;-61
2023/04/05 11:23:26;;;;;;;6.32;4.80;;;18.70;37.60;;;;;;7369829;19;20042;-60
2023/04/05 11:25:58;;;;;;;6.22;4.65;;;18.90;37.40;;;;;;7373179;19;20524;-59
2023/04/05 11:28:38;;;;;;;7.45;4.28;;;19.30;37.00;;;;;;7370098;19;20873;-60
2023/04/05 11:31:18;;;;;;;8.50;4.60;;;19.50;36.90;;;;;;7365182;19;20023;-61
2023/04/05 11:33:45;;;;;;;6.32;4.32;;;19.20;36.20;;;;;;7370684;19;20022;-61
2023/04/05 11:36:15;;;;;;;7.68;4.13;;;20.00;36.30;;;;;;7364700;19;20022;-60
2023/04/05 11:38:44;;;;;;;7.72;4.47;;;19.60;36.10;;;;;;7369327;19;20015;-64
2023/04/05 11:41:16;;;;;;;7.00;4.80;;;19.60;36.50;;;;;;7370162;19;20031;-63
2023/04/05 11:43:46;;;;;;;7.53;4.93;;;19.30;36.30;;;;;;7370364;19;20114;-60
2023/04/05 11:46:15;;;;;;;6.03;4.10;;;19.20;36.60;;;;;;7364330;19;20175;-64
2023/04/05 11:48:41;;;;;;;5.75;4.40;;;19.80;35.90;;;;;;7368437;19;20022;-64
2023/04/05 11:51:09;;;;;;;7.28;4.82;;;18.90;35.10;;;;;;7367085;19;20014;-64
2023/04/05 11:53:38;;;;;;;5.95;4.22;;;19.30;35.30;;;;;;7366600;19;20019;-64
2023/04/05 11:56:14;;;;;;;8.38;4.15;;;19.60;36.40;;;;;;7366790;19;20030;-63
2023/04/05 11:58:41;;;;;;;6.80;4.22;;;19.40;35.90;;;;;;7369342;19;20015;-63
2023/04/05 12:01:08;;;;;;;6.57;4.30;;;19.40;36.10;;;;;;7366887;19;20018;-64
2023/04/05 12:03:36;;;;;;;5.78;4.10;;;19.10;35.70;;;;;;7370846;19;20035;-63
2023/04/05 12:06:04;;;;;;;6.55;3.85;;;18.90;36.30;;;;;;7366451;19;20022;-64
2023/04/05 12:08:37;;;;;;;7.93;4.88;;;19.40;36.40;;;;;;7366137;19;20018;-64
2023/04/05 12:11:06;;;;;;;8.18;5.28;;;19.30;35.40;;;;;;7363259;19;20022;-65
2023/04/05 12:13:34;;;;;;;5.93;4.70;;;19.30;35.90;;;;;;7365762;19;20482;-64
2023/04/05 12:16:02;;;;;;;6.45;4.30;;;19.40;37.50;;;;;;7367939;19;20047;-64
2023/04/05 12:18:36;;;;;;;5.75;4.30;;;18.90;35.40;;;;;;7367819;19;20015;-61
2023/04/05 12:21:05;;;;;;;7.00;4.40;;;19.30;34.40;;;;;;7369224;19;20022;-64
2023/04/05 12:23:31;;;;;;;8.20;4.30;;;20.10;35.30;;;;;;7365533;19;20010;-61
2023/04/05 12:25:58;;;;;;;6.82;4.25;;;19.50;35.30;;;;;;7366026;19;20023;-61
2023/04/05 12:28:25;;;;;;;7.18;4.13;;;19.90;35.50;;;;;;7364132;19;20022;-61
2023/04/05 12:30:52;;;;;;;6.47;4.35;;;19.70;35.00;;;;;;7363244;19;20106;-64
2023/04/05 12:33:34;;;;;;;6.47;4.60;;;19.50;35.40;;;;;;7367819;19;20092;-64
2023/04/05 12:36:05;;;;;;;8.07;4.38;;;19.30;35.40;;;;;;7369222;19;20103;-61
2023/04/05 12:38:31;;;;;;;6.78;4.50;;;19.50;35.70;;;;;;7370265;19;20026;-61
2023/04/05 12:41:02;;;;;;;6.13;4.78;;;19.30;33.80;;;;;;7373291;19;20909;-61
2023/04/05 12:43:42;;;;;;;6.55;4.75;;;19.20;34.50;;;;;;7370538;19;20022;-61
2023/04/05 12:46:16;;;;;;;6.63;3.88;;;19.40;35.30;;;;;;7367531;19;20034;-61
2023/04/05 12:48:42;;;;;;;9.18;7.25;;;19.30;33.10;;;;;;7367807;19;20015;-64
2023/04/05 12:51:16;;;;;;;5.97;4.10;;;19.80;34.20;;;;;;7367468;19;20055;-64
2023/04/05 12:53:46;;;;;;;6.65;4.85;;;19.10;35.70;;;;;;7372304;19;20018;-64
2023/04/05 12:56:14;;;;;;;7.32;4.30;;;18.00;35.90;;;;;;7369165;19;20017;-64
2023/04/05 12:58:41;;;;;;;7.35;4.47;;;17.90;37.10;;;;;;7369347;19;20043;-64
2023/04/05 13:01:09;;;;;;;7.13;4.80;;;18.70;37.40;;;;;;7369651;19;20024;-63